Time;durP1;ratioP1;P1;durP2;ratioP2;P2;SDS_P1;SDS_P2;PMS_P1;PMS_P2;Temp;Humidity;BMP_temperature;BMP_pressure;BME280_temperature;BME280_humidity;BME280_pressure;Samples;Min_cycle;Max_cycle;Signal;HPM_P1;HPM_P2
2022/09/18 06:42:36;;;;;;;11.60;1.40;;;16.60;66.70;;;;;;5647992;24;20457;-76
2022/09/18 06:45:02;;;;;;;6.82;1.05;;;16.50;66.80;;;;;;4846266;29;20049;-77
2022/09/18 06:47:28;;;;;;;6.60;1.00;;;16.60;67.10;;;;;;4844610;29;20050;-78
2022/09/18 06:49:54;;;;;;;12.45;1.52;;;16.50;67.20;;;;;;4839891;29;20046;-74
2022/09/18 06:52:20;;;;;;;10.70;1.70;;;16.60;67.50;;;;;;4836604;29;20374;-76
2022/09/18 06:54:45;;;;;;;8.00;1.42;;;16.60;67.50;;;;;;4828908;29;20436;-74
2022/09/18 06:57:11;;;;;;;12.90;1.17;;;16.70;67.40;;;;;;4825333;29;20058;-72
2022/09/18 06:59:37;;;;;;;9.75;1.10;;;16.60;67.50;;;;;;4828459;29;20111;-76
2022/09/18 07:02:03;;;;;;;6.50;1.35;;;16.70;67.60;;;;;;4834853;29;20046;-73
2022/09/18 07:04:29;;;;;;;11.82;1.50;;;16.70;67.60;;;;;;4836230;29;20053;-76
2022/09/18 07:06:55;;;;;;;11.07;1.48;;;16.70;67.70;;;;;;4837997;29;20129;-72
2022/09/18 07:09:20;;;;;;;9.48;1.42;;;16.70;67.80;;;;;;4837762;29;20056;-74
2022/09/18 07:11:46;;;;;;;10.50;0.88;;;16.70;67.90;;;;;;4846613;29;20053;-75
2022/09/18 07:14:12;;;;;;;18.33;2.30;;;16.70;68.00;;;;;;4846733;29;20085;-74
2022/09/18 07:16:38;;;;;;;14.30;1.83;;;16.70;68.00;;;;;;4846205;29;20050;-74
2022/09/18 07:19:03;;;;;;;12.93;1.50;;;16.80;68.10;;;;;;4837782;29;20120;-73
2022/09/18 07:21:30;;;;;;;15.13;2.13;;;16.70;68.00;;;;;;4837073;29;20122;-75
2022/09/18 07:23:56;;;;;;;6.40;1.00;;;16.70;68.10;;;;;;4827846;29;20445;-74
2022/09/18 07:26:21;;;;;;;9.57;1.65;;;16.80;68.20;;;;;;4846413;29;20377;-73
2022/09/18 07:28:47;;;;;;;5.32;1.25;;;16.80;68.10;;;;;;4846654;29;20049;-73
2022/09/18 07:31:13;;;;;;;11.35;1.38;;;16.80;68.10;;;;;;4846691;29;20155;-74
2022/09/18 07:33:41;;;;;;;11.90;1.42;;;16.80;68.00;;;;;;4846554;29;20057;-74
2022/09/18 07:36:07;;;;;;;6.78;1.10;;;16.80;68.00;;;;;;4846146;29;20077;-74
2022/09/18 07:38:33;;;;;;;10.75;1.50;;;16.80;67.90;;;;;;4846095;29;20135;-75
2022/09/18 07:41:03;;;;;;;6.68;0.80;;;16.90;67.90;;;;;;4845740;29;20061;-74
2022/09/18 07:43:29;;;;;;;7.20;1.40;;;16.80;67.80;;;;;;4852656;29;20453;-74
2022/09/18 07:45:55;;;;;;;9.25;1.50;;;16.90;67.80;;;;;;4848516;29;20064;-75
2022/09/18 07:48:22;;;;;;;7.85;1.25;;;16.80;67.70;;;;;;4864754;29;20081;-74
2022/09/18 07:50:48;;;;;;;7.30;0.80;;;16.90;67.70;;;;;;4864732;29;20053;-74
2022/09/18 07:53:13;;;;;;;6.03;0.85;;;16.90;67.70;;;;;;4864818;29;20129;-74
2022/09/18 07:55:41;;;;;;;11.45;1.65;;;16.90;67.60;;;;;;4848173;29;20077;-74
2022/09/18 07:58:08;;;;;;;6.10;1.23;;;16.90;67.60;;;;;;4846382;29;20054;-74
2022/09/18 08:00:35;;;;;;;11.52;1.30;;;16.90;67.60;;;;;;4845945;29;20148;-74
2022/09/18 08:03:05;;;;;;;6.32;1.10;;;16.90;67.50;;;;;;4849148;29;20133;-73
2022/09/18 08:05:31;;;;;;;10.50;1.13;;;16.90;67.60;;;;;;4846090;29;20130;-73
2022/09/18 08:08:04;;;;;;;7.13;1.10;;;16.90;67.60;;;;;;4864459;29;20060;-76
2022/09/18 08:10:31;;;;;;;15.53;1.37;;;16.90;67.80;;;;;;4864664;29;20140;-74
2022/09/18 08:12:56;;;;;;;13.60;1.27;;;16.90;68.00;;;;;;4864298;29;20333;-74
2022/09/18 08:15:22;;;;;;;20.23;1.60;;;16.90;68.00;;;;;;4848200;29;20076;-77
2022/09/18 08:17:48;;;;;;;15.02;2.05;;;16.90;68.00;;;;;;4864118;29;20057;-76
2022/09/18 08:20:14;;;;;;;8.52;1.00;;;16.90;67.80;;;;;;4846617;29;20049;-78
2022/09/18 08:22:41;;;;;;;8.93;1.30;;;16.90;67.60;;;;;;4864050;29;20334;-77
2022/09/18 08:25:07;;;;;;;9.25;1.38;;;16.90;67.40;;;;;;4863987;29;20049;-80
2022/09/18 08:27:37;;;;;;;8.48;1.85;;;16.90;67.40;;;;;;4863252;29;20053;-74
2022/09/18 08:30:04;;;;;;;5.65;0.65;;;16.90;67.30;;;;;;4863324;29;20059;-77
2022/09/18 08:32:31;;;;;;;11.40;1.65;;;16.80;67.50;;;;;;4863599;29;20053;-76
2022/09/18 08:34:58;;;;;;;5.70;0.98;;;16.80;67.80;;;;;;4862599;29;20061;-75
2022/09/18 08:37:25;;;;;;;6.35;1.33;;;16.90;66.20;;;;;;4863932;29;20057;-79
2022/09/18 08:39:51;;;;;;;4.45;0.30;;;16.80;65.40;;;;;;4863218;29;20052;-78
2022/09/18 08:42:36;;;;;;;5.60;0.65;;;16.70;65.60;;;;;;4847368;29;20465;-79
2022/09/18 08:45:47;;;;;;;9.48;1.10;;;16.60;66.10;;;;;;4863400;29;20049;-80
2022/09/18 08:48:32;;;;;;;9.18;1.85;;;16.50;67.00;;;;;;4862659;29;20045;-81
2022/09/18 08:51:14;;;;;;;13.90;1.40;;;16.60;67.90;;;;;;4844821;29;20482;-76
2022/09/18 08:53:44;;;;;;;16.85;2.20;;;16.70;68.50;;;;;;4862910;29;20060;-75
2022/09/18 08:56:17;;;;;;;16.17;2.75;;;16.70;68.80;;;;;;4862662;29;20133;-76
2022/09/18 08:58:55;;;;;;;17.05;2.83;;;16.70;69.10;;;;;;4863320;29;20056;-78
2022/09/18 09:01:27;;;;;;;15.88;2.63;;;16.70;69.50;;;;;;4857671;29;20046;-82
2022/09/18 09:04:00;;;;;;;13.73;2.30;;;16.70;69.50;;;;;;4854157;29;20195;-82
2022/09/18 09:06:50;;;;;;;16.00;2.83;;;16.70;69.40;;;;;;4847175;29;20053;-80
2022/09/18 09:09:37;;;;;;;15.68;2.20;;;16.70;69.40;;;;;;4846782;29;20481;-82
2022/09/18 09:12:12;;;;;;;10.43;1.73;;;16.80;69.10;;;;;;4863250;29;20049;-82
2022/09/18 09:14:54;;;;;;;10.40;1.05;;;16.80;68.60;;;;;;4846589;29;20056;-81
2022/09/18 09:17:36;;;;;;;6.20;1.27;;;16.80;68.10;;;;;;4831421;29;20064;-81
2022/09/18 09:20:11;;;;;;;10.40;2.03;;;16.90;68.10;;;;;;4839260;29;20543;-81
2022/09/18 09:22:43;;;;;;;15.35;1.50;;;16.80;68.50;;;;;;4842950;29;20063;-80
2022/09/18 09:25:43;;;;;;;14.05;2.10;;;16.80;68.70;;;;;;4836628;29;20133;-80
2022/09/18 09:28:33;;;;;;;8.63;1.13;;;16.70;69.00;;;;;;4844137;29;20058;-81
2022/09/18 09:31:04;;;;;;;17.80;2.28;;;16.90;69.60;;;;;;4844756;29;20061;-77
2022/09/18 09:33:37;;;;;;;13.48;1.52;;;16.90;69.20;;;;;;4843541;29;20140;-82
2022/09/18 09:36:15;;;;;;;20.15;2.00;;;17.00;68.70;;;;;;4824205;29;20411;-80
2022/09/18 09:38:54;;;;;;;15.45;1.95;;;17.00;68.10;;;;;;4853152;29;20476;-81
2022/09/18 09:41:43;;;;;;;7.78;1.58;;;17.00;67.80;;;;;;4829799;29;20067;-81
2022/09/18 09:44:28;;;;;;;11.30;1.75;;;17.00;68.30;;;;;;4830859;29;20401;-78
2022/09/18 09:47:26;;;;;;;16.85;2.20;;;17.10;68.20;;;;;;4862793;29;20124;-75
2022/09/18 09:50:07;;;;;;;14.43;1.80;;;17.20;67.90;;;;;;4862815;29;20057;-77
2022/09/18 09:52:36;;;;;;;20.02;2.72;;;17.30;67.30;;;;;;4854266;29;20046;-76
2022/09/18 09:55:35;;;;;;;24.65;2.42;;;17.40;67.50;;;;;;4852455;29;20108;-80
2022/09/18 09:58:21;;;;;;;17.02;2.33;;;17.60;67.40;;;;;;4837971;29;20074;-82
2022/09/18 10:01:09;;;;;;;18.75;2.45;;;17.70;67.30;;;;;;4852176;29;20069;-79
2022/09/18 10:03:56;;;;;;;16.27;2.30;;;17.80;67.20;;;;;;4853895;29;20090;-76
2022/09/18 10:06:54;;;;;;;24.83;2.97;;;17.90;67.20;;;;;;4854562;29;20355;-77
2022/09/18 10:09:34;;;;;;;23.23;3.08;;;18.00;67.20;;;;;;4857339;29;20065;-75
2022/09/18 10:12:08;;;;;;;24.17;3.42;;;18.00;67.10;;;;;;4856219;29;20102;-74
2022/09/18 10:14:42;;;;;;;21.45;2.90;;;18.00;67.30;;;;;;4857481;29;20049;-74
2022/09/18 10:17:11;;;;;;;24.67;3.47;;;17.90;67.50;;;;;;4858054;29;20056;-76
2022/09/18 10:19:41;;;;;;;20.13;2.83;;;17.80;67.70;;;;;;4855373;29;20089;-76
2022/09/18 10:22:11;;;;;;;12.55;2.00;;;17.80;68.10;;;;;;4854912;29;20122;-77
2022/09/18 10:24:48;;;;;;;12.60;1.58;;;17.70;68.00;;;;;;4838210;29;20041;-76
2022/09/18 10:27:14;;;;;;;20.95;2.45;;;17.70;67.70;;;;;;4854955;29;20392;-75
2022/09/18 10:29:40;;;;;;;12.77;1.80;;;17.60;67.60;;;;;;4856813;29;20053;-75
2022/09/18 10:32:09;;;;;;;14.98;2.13;;;17.60;67.50;;;;;;4840167;29;20105;-75
2022/09/18 10:34:46;;;;;;;15.88;2.38;;;17.50;67.60;;;;;;4855515;29;20054;-72
2022/09/18 10:37:27;;;;;;;14.60;2.25;;;17.50;67.50;;;;;;4852778;29;20060;-74
2022/09/18 10:39:56;;;;;;;17.52;1.95;;;17.50;67.40;;;;;;4825350;29;20096;-74
2022/09/18 10:42:25;;;;;;;7.15;1.35;;;17.50;66.90;;;;;;4855515;29;20054;-75
2022/09/18 10:44:53;;;;;;;13.25;1.50;;;17.40;66.10;;;;;;4855051;29;20136;-74
2022/09/18 10:47:25;;;;;;;10.43;1.17;;;17.40;65.80;;;;;;4839008;29;20058;-76
2022/09/18 10:49:55;;;;;;;11.95;1.73;;;17.40;65.40;;;;;;4855318;29;20072;-75
2022/09/18 10:52:30;;;;;;;10.25;1.50;;;17.40;65.50;;;;;;4855219;29;20053;-74
2022/09/18 10:55:06;;;;;;;10.75;1.20;;;17.40;65.80;;;;;;4838806;29;20133;-74
2022/09/18 10:57:38;;;;;;;8.52;1.60;;;17.40;66.10;;;;;;4854959;29;20046;-76
2022/09/18 11:00:19;;;;;;;12.73;1.92;;;17.30;66.30;;;;;;4855659;29;20046;-76
2022/09/18 11:02:50;;;;;;;9.93;1.63;;;17.30;66.60;;;;;;4855494;29;20056;-75
2022/09/18 11:05:21;;;;;;;15.45;1.58;;;17.30;66.80;;;;;;4838555;29;20078;-73
2022/09/18 11:07:49;;;;;;;12.95;1.80;;;17.30;67.00;;;;;;4855414;29;20045;-76
2022/09/18 11:10:18;;;;;;;13.02;1.80;;;17.30;66.90;;;;;;4856468;29;20118;-75
2022/09/18 11:12:53;;;;;;;9.73;1.30;;;17.30;67.00;;;;;;4855300;29;20121;-80
2022/09/18 11:15:21;;;;;;;8.13;1.33;;;17.20;66.90;;;;;;4856354;29;20042;-75
2022/09/18 14:15:49;;;;;;;10.73;1.85;;;17.10;65.30;;;;;;4857125;24;20055;-76
2022/09/18 14:18:21;;;;;;;11.13;1.33;;;17.10;65.60;;;;;;4831115;29;20061;-77
2022/09/18 14:20:51;;;;;;;15.77;1.90;;;17.10;66.20;;;;;;4832707;29;20609;-76
2022/09/18 14:23:45;;;;;;;9.05;1.40;;;17.20;66.10;;;;;;4835054;29;20483;-75
2022/09/18 14:26:29;;;;;;;7.05;1.10;;;17.20;65.70;;;;;;4833938;29;20050;-76
2022/09/18 14:29:18;;;;;;;11.02;1.73;;;17.20;65.50;;;;;;4834513;29;20064;-79
2022/09/18 14:31:48;;;;;;;9.23;1.75;;;17.20;65.30;;;;;;4831740;29;20424;-80
2022/09/18 14:34:38;;;;;;;6.10;1.20;;;17.20;65.30;;;;;;4833280;29;20444;-79
2022/09/18 14:37:25;;;;;;;5.68;1.23;;;17.10;65.60;;;;;;4830426;29;20060;-78
2022/09/18 14:39:57;;;;;;;9.93;1.27;;;17.20;66.00;;;;;;4817357;29;20042;-79
2022/09/18 15:26:43;;;;;;;12.38;1.23;;;17.30;64.40;;;;;;5210612;24;20059;-72
2022/09/18 15:29:25;;;;;;;11.63;1.10;;;17.20;64.90;;;;;;4791678;29;20125;-73
2022/09/18 15:31:52;;;;;;;12.25;1.63;;;17.30;65.20;;;;;;4792328;30;20122;-73
2022/09/18 15:34:31;;;;;;;18.45;2.22;;;17.30;65.50;;;;;;4792044;30;20541;-74
2022/09/18 15:37:02;;;;;;;13.45;2.03;;;17.30;65.80;;;;;;4792225;30;20091;-75
2022/09/18 15:39:38;;;;;;;14.13;1.80;;;17.30;66.10;;;;;;4791512;30;20057;-74
2022/09/18 15:42:19;;;;;;;14.82;1.50;;;17.30;66.30;;;;;;4790649;30;20052;-77
2022/09/18 15:44:53;;;;;;;17.65;2.53;;;17.30;66.50;;;;;;4791097;30;20070;-77
2022/09/18 15:47:33;;;;;;;13.15;2.40;;;17.30;66.70;;;;;;4775989;30;20048;-80
2022/09/18 15:50:02;;;;;;;18.70;2.42;;;17.30;66.70;;;;;;4775833;30;20062;-78
2022/09/18 15:52:34;;;;;;;15.52;2.15;;;17.30;66.80;;;;;;4791426;30;20086;-78
2022/09/18 15:55:08;;;;;;;10.45;1.77;;;17.30;66.70;;;;;;4791945;30;20055;-80
2022/09/18 15:57:36;;;;;;;15.98;1.33;;;17.40;66.70;;;;;;4776085;30;20090;-78
2022/09/18 16:00:08;;;;;;;8.52;1.30;;;17.30;66.60;;;;;;4791408;30;20375;-82
2022/09/18 16:02:36;;;;;;;13.50;2.10;;;17.30;66.60;;;;;;4791803;30;20051;-80
2022/09/18 16:05:12;;;;;;;10.98;1.85;;;17.30;66.60;;;;;;4789672;29;20059;-73
2022/09/18 16:07:41;;;;;;;17.92;2.03;;;17.40;66.60;;;;;;4790635;30;20035;-77
2022/09/18 16:10:32;;;;;;;11.38;1.30;;;17.30;66.50;;;;;;4775612;30;20486;-76
2022/09/18 16:12:58;;;;;;;13.85;2.05;;;17.40;66.40;;;;;;4792983;29;20458;-77
2022/09/18 16:15:24;;;;;;;13.60;1.98;;;17.40;66.30;;;;;;4804657;29;20134;-78
2022/09/18 16:17:50;;;;;;;11.43;1.52;;;17.40;65.50;;;;;;4809386;29;20138;-76
2022/09/18 16:20:32;;;;;;;13.73;2.25;;;17.40;65.10;;;;;;4809372;29;20138;-73
2022/09/18 16:23:22;;;;;;;14.63;1.38;;;17.30;65.10;;;;;;4802225;29;20117;-75
2022/09/18 16:26:09;;;;;;;9.40;1.63;;;17.30;65.30;;;;;;4790777;30;20098;-75
2022/09/18 16:28:43;;;;;;;10.80;1.88;;;17.30;65.50;;;;;;4787914;29;20356;-73
2022/09/18 16:31:12;;;;;;;12.85;2.08;;;17.30;65.60;;;;;;4809323;29;20055;-74
2022/09/18 19:09:09;;;;;;;8.32;1.75;;;17.40;67.40;;;;;;5667293;24;20438;-72
2022/09/18 19:11:46;;;;;;;8.90;1.75;;;17.40;67.20;;;;;;4828092;29;20062;-73
2022/09/18 19:14:24;;;;;;;7.82;1.92;;;17.40;67.00;;;;;;4828125;29;20130;-74
2022/09/18 19:16:50;;;;;;;9.13;2.00;;;17.40;66.90;;;;;;4811755;29;20058;-74
2022/09/18 19:19:18;;;;;;;10.57;1.95;;;17.40;66.90;;;;;;4828852;29;20058;-73
2022/09/18 19:21:44;;;;;;;21.52;2.15;;;17.40;67.00;;;;;;4794441;29;20066;-75
2022/09/18 19:24:11;;;;;;;8.18;1.40;;;17.40;67.40;;;;;;4822762;29;20358;-72
2022/09/18 19:26:39;;;;;;;8.73;1.63;;;17.40;67.40;;;;;;4847029;29;20147;-75
2022/09/18 19:29:09;;;;;;;6.20;1.38;;;17.40;68.40;;;;;;4830282;29;20073;-75
2022/09/18 19:31:45;;;;;;;8.25;1.60;;;17.40;68.50;;;;;;4834346;29;20331;-80
2022/09/18 19:34:13;;;;;;;7.40;1.20;;;17.40;69.40;;;;;;4844060;29;20050;-73
2022/09/18 19:36:39;;;;;;;8.52;1.77;;;17.40;69.10;;;;;;4842250;29;20121;-76
2022/09/18 19:39:06;;;;;;;11.35;1.60;;;17.40;69.90;;;;;;4827532;29;20125;-77
2022/09/18 19:41:56;;;;;;;7.40;1.60;;;17.40;69.60;;;;;;4827836;29;20058;-80
2022/09/18 19:44:39;;;;;;;7.82;1.25;;;17.40;71.50;;;;;;4819485;29;20054;-76
2022/09/18 19:47:24;;;;;;;13.98;1.90;;;17.40;69.60;;;;;;4826312;29;20525;-77
2022/09/18 19:49:50;;;;;;;12.95;1.88;;;17.40;71.00;;;;;;4826039;29;20149;-79
2022/09/18 19:52:19;;;;;;;12.48;1.75;;;17.40;69.80;;;;;;4823451;29;20428;-77
2022/09/18 19:54:46;;;;;;;7.57;1.90;;;17.40;70.30;;;;;;4811782;29;20441;-79
2022/09/18 19:57:12;;;;;;;9.55;2.38;;;17.40;70.60;;;;;;4811589;29;20040;-78
2022/09/18 19:59:41;;;;;;;5.85;1.10;;;17.40;70.50;;;;;;4793897;29;20051;-83
2022/09/18 20:02:10;;;;;;;10.55;1.70;;;17.40;71.00;;;;;;4794380;29;20078;-82
2022/09/18 20:04:35;;;;;;;11.63;1.88;;;17.40;70.90;;;;;;4811290;29;20111;-78
2022/09/18 20:07:01;;;;;;;10.38;1.85;;;17.40;70.40;;;;;;4827448;29;20050;-77
2022/09/18 20:09:48;;;;;;;9.85;1.70;;;17.40;70.10;;;;;;4843351;29;20096;-82
2022/09/18 20:12:13;;;;;;;6.28;1.52;;;17.40;70.40;;;;;;4841664;29;20114;-80
2022/09/18 20:18:49;;;;;;;9.63;2.35;;;17.50;69.90;;;;;;4844310;29;20037;-86
2022/09/18 20:22:09;;;;;;;11.63;1.98;;;17.30;65.20;;;;;;4843973;29;20473;-85
2022/09/18 20:28:40;;;;;;;10.95;1.85;;;17.10;62.90;;;;;;4826887;29;20042;-83
2022/09/18 20:32:02;;;;;;;7.47;1.67;;;16.90;63.60;;;;;;4738786;29;20135;-85
2022/09/18 20:34:45;;;;;;;7.70;1.77;;;16.80;62.90;;;;;;4699039;30;20540;-87
2022/09/18 20:38:10;;;;;;;9.52;1.90;;;16.70;61.70;;;;;;4683576;30;20046;-83
2022/09/18 20:41:29;;;;;;;8.32;1.77;;;16.70;61.40;;;;;;4681385;30;20050;-82
2022/09/18 20:44:03;;;;;;;10.82;2.33;;;16.60;61.50;;;;;;4652139;30;20080;-84
2022/09/18 21:17:27;;;;;;;11.55;2.08;;;16.20;64.70;;;;;;5450040;24;19968;-82
